Arbúcies





Hora UTC 15:50
Temperatura 24.2 ºC
Humitat 57.9 %
Pressió 1020.0 hPa
Pluja 0.0 mm
Velocitat vent 8.0 km/h
Direcció vent ENE
Radiació solar 121.4 W/m²

Dades diàries 2019-09-20



Hora UTC (hivern +1h; estiu +2h)
Temperatura (ºC) Humitat (%) Pressió (hPa) Velocitat vent (km/h) Precipitació (mm) Radiació solar (W/m²)
Hora UTC Aire Humitat Pressió Vel. Dir. Vel. Max Dir. Intent. màx 5 min. Rad. Sol.
00:05 15.3 82.9 1021.0 8.3 SW 9.9 SW 0.0 0.0
00:10 14.9 84.2 1022.0 8.1 SW 10.6 SW 0.0 0.0
00:15 14.8 85.7 1021.0 8.3 SW 11.3 SW 0.0 0.0
00:20 14.7 85.9 1021.0 8.8 SW 10.9 SW 0.0 0.0
00:25 14.6 85.8 1021.0 7.8 SW 10.2 SW 0.0 0.0
00:30 14.6 86.2 1021.0 7.6 SW 9.9 SW 0.0 0.0
00:35 14.6 86.4 1022.0 7.3 SW 11.6 SW 0.0 0.0
00:40 14.8 86.1 1022.0 6.8 SW 11.3 SW 0.0 0.0
00:45 15.0 84.9 1021.0 6.6 SW 10.2 SW 0.0 0.0
00:50 14.9 85.0 1022.0 7.4 SSW 9.5 SSW 0.0 0.0
00:55 14.8 85.7 1022.0 6.1 SSW 8.5 SSW 0.0 0.0
01:00 15.0 85.4 1022.0 6.0 SSW 9.9 S 0.0 0.0
01:05 15.2 84.4 1022.0 10.1 SSW 13.4 SW 0.0 0.0
01:10 15.2 83.4 1022.0 8.2 SW 11.6 WSW 0.0 0.0
01:15 15.1 84.1 1022.0 8.3 SW 12.0 SW 0.0 0.0
01:20 15.4 82.7 1021.0 8.1 SSW 12.7 SSW 0.0 0.0
01:25 15.5 82.2 1022.0 9.4 SSW 13.1 SW 0.0 0.0
01:30 15.7 80.8 1021.0 9.7 SSW 12.7 SSW 0.0 0.0
01:35 15.8 80.1 1022.0 9.9 SSW 13.4 SW 0.0 0.0
01:40 15.9 80.1 1022.0 8.8 SSW 12.0 SW 0.0 0.0
01:45 15.9 79.7 1021.0 8.9 SSW 13.1 SW 0.0 0.0
01:50 16.1 78.7 1021.0 8.1 SSW 11.6 SSW 0.0 0.0
01:55 16.1 79.2 1021.0 6.5 SW 9.5 SSW 0.0 0.0
02:00 16.0 80.8 1022.0 6.4 SSW 8.8 SW 0.0 0.0
02:05 15.9 81.7 1022.0 5.8 SSW 8.5 SW 0.0 0.0
02:10 15.9 81.9 1021.0 6.6 SSW 13.4 SW 0.0 0.0
02:15 16.3 79.3 1021.0 9.5 SSW 13.1 SW 0.0 0.0
02:20 16.4 78.3 1021.0 9.0 SSW 11.6 SSW 0.0 0.0
02:25 16.4 79.0 1021.0 8.5 SSW 11.3 SSW 0.0 0.0
02:30 16.4 79.2 1021.0 8.2 SSW 10.9 SSW 0.0 0.0
02:35 16.4 78.7 1022.0 8.8 SSW 12.3 SSW 0.0 0.0
02:40 16.5 78.3 1021.0 8.8 SSW 12.3 SSW 0.0 0.0
02:45 16.7 77.0 1021.0 10.3 SSW 12.7 SSW 0.0 0.0
02:50 16.9 75.8 1021.0 9.4 SSW 13.4 SSW 0.0 0.0
02:55 16.8 76.6 1021.0 8.6 SSW 12.3 SSW 0.0 0.0
03:00 16.7 77.5 1022.0 7.0 SSW 9.9 SSW 0.0 0.0
03:05 16.7 77.1 1022.0 8.7 SSW 12.0 SSW 0.0 0.0
03:10 16.8 76.8 1021.0 7.6 SSW 11.3 SSW 0.0 0.0
03:15 16.7 77.9 1021.0 7.5 SSW 12.0 SW 0.0 0.0
03:20 16.7 77.9 1021.0 7.4 SSW 10.9 SSW 0.0 0.0
03:25 16.8 77.7 1021.0 6.6 SSW 9.9 SSW 0.0 0.0
03:30 16.9 76.7 1021.0 6.5 SSW 11.3 SW 0.0 0.0
03:35 16.8 77.6 1022.0 5.1 SW 8.5 SSW 0.0 0.0
03:40 16.2 81.2 1021.0 5.0 SW 9.9 SSW 0.0 0.0
03:45 16.3 81.4 1021.0 8.0 SSW 11.6 SSW 0.0 0.0
03:50 16.4 80.2 1021.0 7.9 SSW 10.9 SW 0.0 0.0
03:55 16.5 79.9 1021.0 8.8 SSW 12.3 SSW 0.0 0.0
04:00 16.1 81.5 1021.0 8.3 SW 10.6 SW 0.0 0.0
04:05 16.0 83.2 1022.0 9.5 SSW 12.7 SSW 0.0 0.0
04:10 15.9 83.8 1021.0 6.6 SSW 10.6 SW 0.0 0.0
04:15 15.9 84.6 1021.0 8.8 SSW 14.5 SW 0.0 0.0
04:20 15.9 84.2 1021.0 7.7 SSW 12.0 SW 0.0 0.0
04:25 15.9 83.7 1021.0 6.8 SSW 11.6 SW 0.0 0.0
04:30 15.9 83.9 1021.0 7.9 SSW 12.0 SSW 0.0 0.0
04:35 15.9 83.8 1022.0 7.6 SSW 10.9 SW 0.0 0.0
04:40 15.9 83.7 1021.0 6.5 SSW 10.2 SSW 0.0 0.0
04:45 15.9 84.0 1021.0 8.5 SSW 12.7 SSW 0.0 0.0
04:50 15.9 83.7 1021.0 8.8 SSW 12.7 SSW 0.0 0.0
04:55 15.9 83.2 1021.0 8.1 SW 12.7 SW 0.0 0.0
05:00 15.9 83.1 1022.0 9.2 SSW 13.1 SW 0.0 0.0
05:05 15.8 83.3 1022.0 9.3 SSW 13.8 SSW 0.0 0.0
05:10 15.8 83.7 1021.0 7.0 SW 10.2 SSW 0.0 0.0
05:15 15.6 84.6 1021.0 7.0 SSW 10.9 SW 0.0 0.0
05:20 15.4 85.9 1021.0 8.2 SW 12.0 SW 0.0 0.0
05:25 15.4 86.3 1021.0 9.5 SW 16.2 SW 0.0 0.0
05:30 15.4 86.0 1021.0 9.5 SW 14.8 SSW 0.0 0.4
05:35 15.5 85.7 1022.0 10.7 SSW 16.6 SW 0.0 2.3
05:40 15.4 85.4 1021.0 7.9 SW 10.6 SW 0.0 4.5
05:45 15.2 86.3 1022.0 7.3 SW 9.9 SW 0.0 7.7
05:50 15.0 87.0 1021.0 7.1 SW 14.5 SW 0.0 11.3
05:55 15.0 88.0 1022.0 7.7 SW 12.0 SW 0.0 16.5
06:00 15.1 88.0 1022.0 7.8 SW 12.3 WSW 0.0 26.4
06:05 15.0 87.9 1022.0 6.3 SW 10.9 SW 0.0 25.4
06:10 15.1 88.3 1022.0 7.3 SW 11.3 SW 0.0 30.4
06:15 15.3 87.5 1022.0 7.9 SW 12.7 SSW 0.0 40.3
06:20 15.6 86.0 1022.0 8.6 SSW 14.8 SSW 0.0 53.1
06:25 15.9 83.8 1022.0 8.8 SW 13.4 SW 0.0 73.6
06:30 16.1 82.9 1022.0 8.0 SW 12.7 WSW 0.0 96.1
06:35 16.2 81.9 1022.0 9.6 SSW 14.1 SW 0.0 108.9
06:40 16.4 81.6 1022.0 8.8 SSW 12.7 SSW 0.0 124.4
06:45 16.5 81.6 1022.0 8.3 SSW 12.3 SW 0.0 137.4
06:50 16.7 80.1 1022.0 8.9 SSW 13.1 SW 0.0 153.8
06:55 16.9 79.3 1022.0 8.0 SSW 11.3 SSW 0.0 168.3
07:00 17.3 78.0 1022.0 7.1 SSW 9.2 SSW 0.0 185.0
07:05 17.6 76.6 1022.0 6.4 SSW 8.5 SSW 0.0 195.4
07:10 17.9 75.7 1022.0 6.5 SW 8.5 SW 0.0 200.9
07:15 18.0 75.4 1022.0 6.5 SSW 7.8 SSW 0.0 224.9
07:20 18.3 74.7 1022.0 6.5 SSW 8.1 SSW 0.0 240.4
07:25 18.6 73.9 1022.0 5.7 SSW 7.4 SSW 0.0 259.8
07:30 19.0 73.2 1022.0 4.5 SSW 6.4 SW 0.0 274.5
07:35 19.3 72.1 1023.0 4.6 SSW 5.6 SSW 0.0 291.6
07:40 19.7 70.9 1022.0 3.5 SSW 5.6 SSW 0.0 305.5
07:45 19.8 70.2 1023.0 2.1 S 3.5 SSE 0.0 324.6
07:50 20.2 69.3 1023.0 0.5 S 2.8 S 0.0 313.3
07:55 20.4 67.7 1022.0 1.6 S 3.2 S 0.0 355.5
08:00 20.7 66.2 1022.0 1.0 S 2.8 SSE 0.0 378.9
08:05 21.0 64.7 1023.0 1.1 S 1.8 SSE 0.0 389.9
08:10 21.2 62.8 1022.0 0.9 S 2.1 SSE 0.0 411.8
08:15 21.5 61.2 1023.0 0.9 S 2.1 SSE 0.0 425.5
08:20 21.6 58.7 1022.0 0.4 SE 1.8 ESE 0.0 434.6
08:25 22.0 56.9 1022.0 0.7 S 2.8 SSW 0.0 347.0
08:30 21.7 57.6 1022.0 0.5 SSE 2.1 S 0.0 333.4
08:35 21.7 58.3 1023.0 0.6 S 2.5 SSW 0.0 320.5
08:40 21.6 59.3 1022.0 1.4 SSW 2.5 S 0.0 271.1
08:45 21.5 60.3 1022.0 1.5 SSW 2.5 SW 0.0 287.9
08:50 21.8 59.2 1023.0 0.8 S 2.1 SSW 0.0 435.9
08:55 22.5 55.6 1023.0 0.0 S 0.4 S 0.0 412.1
09:00 22.9 53.0 1022.0 0.0 SE 0.4 SSE 0.0 441.4
09:05 23.0 50.0 1023.0 1.3 NE 3.5 ENE 0.0 516.9
09:10 23.5 48.2 1022.0 2.3 NNW 7.1 NNW 0.0 570.6
09:15 23.8 50.1 1022.0 8.3 ENE 14.1 NE 0.0 578.0
09:20 23.6 50.1 1023.0 5.0 ENE 10.2 ENE 0.0 575.8
09:25 23.6 49.8 1023.0 6.4 NE 11.6 NE 0.0 581.7
09:30 23.8 49.8 1022.0 2.5 E 9.5 NE 0.0 594.4
09:35 23.9 48.7 1023.0 4.5 E 12.0 ENE 0.0 591.9
09:40 23.9 48.4 1023.0 3.3 ENE 7.8 ENE 0.0 546.1
09:45 23.7 48.8 1022.0 2.0 WNW 4.9 W 0.0 583.5
09:50 24.0 48.8 1022.0 2.2 ENE 6.0 ESE 0.0 627.2
09:55 23.9 47.5 1022.0 3.5 ESE 8.1 NE 0.0 638.4
10:00 24.1 47.1 1022.0 3.7 ENE 10.2 NE 0.0 648.9
10:05 24.1 45.7 1023.0 4.5 NE 9.9 ESE 0.0 656.1
10:10 24.2 45.7 1022.0 3.9 NNE 9.9 N 0.0 659.6
10:15 24.3 44.8 1022.0 5.1 NE 13.1 ENE 0.0 669.1
10:20 24.3 44.1 1022.0 2.5 SSE 5.3 SE 0.0 676.8
10:25 24.9 44.2 1022.0 3.4 N 7.8 NNE 0.0 679.3
10:30 24.9 42.7 1022.0 3.6 NE 8.8 NE 0.0 681.1
10:35 25.0 42.5 1023.0 4.2 E 7.8 ENE 0.0 669.3
10:40 25.0 42.2 1022.0 2.7 SE 7.8 ENE 0.0 690.3
10:45 25.2 41.4 1022.0 1.7 ESE 7.8 ESE 0.0 710.1
10:50 25.5 40.4 1022.0 4.1 ESE 10.2 ENE 0.0 721.7
10:55 25.5 40.9 1022.0 6.7 NE 13.4 ENE 0.0 724.5
11:00 25.6 41.6 1022.0 5.7 NE 14.1 NE 0.0 695.0
11:05 25.3 41.0 1022.0 6.4 NE 13.1 E 0.0 738.3
11:10 25.5 42.0 1022.0 4.9 NE 9.9 NNE 0.0 739.1
11:15 25.5 41.7 1022.0 4.8 NNE 11.3 NE 0.0 734.0
11:20 25.5 40.7 1022.0 5.5 ENE 11.3 E 0.0 738.5
11:25 25.3 42.1 1022.0 6.1 ENE 12.7 ENE 0.0 743.0
11:30 25.4 43.3 1022.0 3.4 ENE 12.3 ESE 0.0 743.1
11:35 25.6 42.0 1022.0 5.2 ENE 11.3 ENE 0.0 746.5
11:40 25.6 42.7 1022.0 7.3 NE 15.5 ENE 0.0 741.1
11:45 25.7 42.0 1021.0 10.6 ENE 19.4 ENE 0.0 746.3
11:50 25.6 42.9 1021.0 3.7 NE 12.0 N 0.0 745.8
11:55 25.8 41.5 1022.0 3.0 E 11.3 ESE 0.0 743.0
12:00 26.2 39.9 1022.0 5.4 ESE 14.1 ENE 0.0 739.1
12:05 25.9 40.1 1022.0 4.6 E 13.1 E 0.0 744.7
12:10 25.7 40.2 1021.0 9.2 NE 18.0 ENE 0.0 745.9
12:15 25.6 40.8 1021.0 6.2 ENE 13.4 NE 0.0 739.0
12:20 26.0 40.8 1021.0 5.3 NE 13.4 ENE 0.0 736.1
12:25 25.7 40.0 1021.0 5.3 NE 9.5 ENE 0.0 733.9
12:30 25.7 40.2 1021.0 6.2 E 14.1 ENE 0.0 727.1
12:35 25.7 40.4 1022.0 3.9 E 9.9 ENE 0.0 723.4
12:40 26.0 39.3 1021.0 2.5 SSE 6.4 SSW 0.0 720.5
12:45 26.3 39.7 1021.0 2.7 NNW 10.9 NE 0.0 710.9
12:50 26.0 40.8 1021.0 9.1 ENE 18.0 ENE 0.0 679.5
12:55 26.1 41.7 1021.0 5.7 NNE 14.8 NE 0.0 673.0
13:00 26.3 39.6 1021.0 2.7 E 10.9 SE 0.0 685.2
13:05 26.2 40.5 1021.0 4.7 ENE 10.9 NE 0.0 690.1
13:10 26.3 42.2 1021.0 3.9 NE 10.2 E 0.0 687.6
13:15 26.5 41.7 1021.0 5.5 ENE 11.6 NE 0.0 666.9
13:20 26.4 42.0 1021.0 4.4 NE 10.2 E 0.0 551.8
13:25 25.7 42.6 1021.0 5.5 ENE 12.0 ENE 0.0 492.2
13:30 25.6 44.1 1021.0 3.2 E 9.2 ENE 0.0 609.6
13:35 25.7 47.4 1021.0 7.4 NE 16.2 NE 0.0 654.9
13:40 25.8 47.9 1020.0 7.5 ENE 15.5 ENE 0.0 648.8
13:45 25.7 49.4 1020.0 7.5 ENE 14.8 E 0.0 638.0
13:50 25.7 50.3 1021.0 6.7 ENE 13.4 ENE 0.0 614.1
13:55 25.7 48.3 1020.0 3.6 ENE 8.1 ENE 0.0 599.9
14:00 25.7 49.7 1020.0 4.4 NE 8.1 NE 0.0 590.7
14:05 25.9 49.7 1021.0 4.6 ENE 13.8 ENE 0.0 574.6
14:10 26.0 49.9 1021.0 4.7 ENE 11.3 NE 0.0 535.6
14:15 26.0 50.0 1020.0 2.9 SSE 9.5 ENE 0.0 513.8
14:20 25.8 50.0 1020.0 3.9 ESE 9.9 NNE 0.0 506.4
14:25 25.6 50.9 1020.0 4.3 ENE 10.6 ENE 0.0 511.3
14:30 25.5 51.4 1020.0 5.4 E 15.9 ENE 0.0 524.2
14:35 25.3 51.5 1021.0 3.6 NE 9.9 ENE 0.0 512.3
14:40 25.4 52.3 1020.0 8.0 ENE 16.9 ENE 0.0 486.4
14:45 25.3 52.8 1020.0 6.3 ENE 14.5 ENE 0.0 478.8
14:50 25.4 52.5 1020.0 5.5 ENE 11.6 ENE 0.0 462.3
14:55 25.0 53.1 1020.0 4.9 E 9.9 ESE 0.0 461.7
15:00 25.0 53.7 1020.0 3.8 E 12.3 ENE 0.0 451.9
15:05 25.3 53.0 1020.0 5.0 ENE 12.3 NE 0.0 423.8
15:10 24.9 53.9 1020.0 4.5 E 11.6 ENE 0.0 413.2
15:15 25.0 53.6 1020.0 2.6 SSE 8.1 SE 0.0 386.6
15:20 25.4 53.2 1020.0 4.3 ENE 10.6 E 0.0 400.2
15:25 25.2 53.5 1020.0 3.9 E 8.8 NNE 0.0 427.8
15:30 25.3 52.9 1020.0 3.9 E 9.5 ENE 0.0 335.7
15:35 25.1 53.8 1020.0 7.3 ENE 14.1 ENE 0.0 387.2
15:40 24.8 55.3 1020.0 5.8 ENE 13.4 ENE 0.0 283.8
15:45 24.6 56.8 1020.0 7.8 NE 14.1 ENE 0.0 162.4
15:50 24.2 57.9 1020.0 8.0 ENE 16.9 NE 0.0 121.4
Màxima 26.5 88.3 1023.0 10.7 SSW 19.4 ENE 0.0 746.5
Mínima 14.6 39.3 1020.0
Total 0.0